createdAt,value
2023-02-16T00:03:24.464Z,5.88
2023-02-16T00:07:28.691Z,5.88
2023-02-16T00:11:51.669Z,5.89
2023-02-16T00:15:54.740Z,5.89
2023-02-16T00:19:57.533Z,5.88
2023-02-16T00:24:04.000Z,5.87
2023-02-16T00:28:13.958Z,5.88
2023-02-16T00:32:17.636Z,5.87
2023-02-16T00:36:20.606Z,5.85
2023-02-16T00:40:25.395Z,5.83
2023-02-16T00:44:33.529Z,5.80
2023-02-16T00:48:36.640Z,5.75
2023-02-16T00:52:42.733Z,5.70
2023-02-16T00:56:47.640Z,5.67
2023-02-16T01:00:53.936Z,5.61
2023-02-16T01:04:56.827Z,5.59
2023-02-16T01:09:30.017Z,5.55
2023-02-16T01:13:39.453Z,5.51
2023-02-16T01:17:42.641Z,5.46
2023-02-16T01:21:45.582Z,5.46
2023-02-16T01:25:48.461Z,5.47
2023-02-16T01:29:54.820Z,5.45
2023-02-16T01:33:57.662Z,5.45
2023-02-16T01:38:00.516Z,5.48
2023-02-16T01:42:27.924Z,5.47
2023-02-16T01:46:40.724Z,5.48
2023-02-16T01:50:49.918Z,5.48
2023-02-16T01:54:56.974Z,5.50
2023-02-16T01:59:04.494Z,5.47
2023-02-16T02:03:32.617Z,5.46
2023-02-16T02:07:41.541Z,5.46
2023-02-16T02:11:47.826Z,5.45
2023-02-16T02:15:51.098Z,5.43
2023-02-16T02:20:05.445Z,5.39
2023-02-16T02:24:44.679Z,5.37
2023-02-16T02:28:56.793Z,5.38
2023-02-16T02:33:16.953Z,5.34
2023-02-16T02:37:25.399Z,5.32
2023-02-16T02:41:50.673Z,5.30
2023-02-16T02:45:58.118Z,5.27
2023-02-16T02:50:01.010Z,5.24
2023-02-16T02:54:26.236Z,5.18
2023-02-16T02:59:06.856Z,5.13
2023-02-16T03:03:17.060Z,5.08
2023-02-16T03:07:22.090Z,5.03
2023-02-16T03:11:47.967Z,5.00
2023-02-16T03:15:55.817Z,4.99
2023-02-16T03:20:20.518Z,4.97
2023-02-16T03:24:45.689Z,4.90
2023-02-16T03:29:07.713Z,4.89
2023-02-16T03:33:10.952Z,4.83
2023-02-16T03:37:15.720Z,4.79
2023-02-16T03:41:18.660Z,4.80
2023-02-16T03:45:24.309Z,4.79
2023-02-16T03:49:27.245Z,4.77
2023-02-16T03:53:31.403Z,4.72
2023-02-16T03:57:34.301Z,4.73
2023-02-16T04:01:37.123Z,4.72
2023-02-16T04:05:40.259Z,4.70
2023-02-16T04:09:44.766Z,4.72
2023-02-16T04:13:47.614Z,4.74
2023-02-16T04:17:50.727Z,4.73
2023-02-16T04:21:53.867Z,4.75
2023-02-16T04:25:58.061Z,4.77
2023-02-16T04:30:00.957Z,4.75
2023-02-16T04:34:03.842Z,4.75
2023-02-16T04:38:06.628Z,4.74
2023-02-16T04:42:10.903Z,4.78
2023-02-16T04:46:13.762Z,4.76
2023-02-16T04:50:16.626Z,4.76
2023-02-16T04:54:19.439Z,4.76
2023-02-16T04:58:23.553Z,4.76
2023-02-16T05:02:26.384Z,4.77
2023-02-16T05:06:29.370Z,4.75
2023-02-16T05:10:32.276Z,4.78
2023-02-16T05:14:42.595Z,4.80
2023-02-16T05:18:45.418Z,4.82
2023-02-16T05:22:48.270Z,4.83
2023-02-16T05:26:51.061Z,4.84
2023-02-16T05:30:56.207Z,4.84
2023-02-16T05:34:59.082Z,4.85
2023-02-16T05:39:01.999Z,4.90
2023-02-16T05:43:04.807Z,4.92
2023-02-16T05:47:09.159Z,4.97
2023-02-16T05:51:12.081Z,5.00
2023-02-16T05:55:14.869Z,5.03
2023-02-16T05:59:18.644Z,5.07
2023-02-16T06:03:22.940Z,5.07
2023-02-16T06:07:25.874Z,5.13
2023-02-16T06:11:37.455Z,5.12
2023-02-16T06:15:40.372Z,5.17
2023-02-16T06:19:44.936Z,5.17
2023-02-16T06:23:47.828Z,5.20
2023-02-16T06:27:52.609Z,5.25
2023-02-16T06:31:55.635Z,5.32
2023-02-16T06:35:59.921Z,5.33
2023-02-16T06:40:02.742Z,5.33
2023-02-16T06:44:07.750Z,5.35
2023-02-16T06:48:10.557Z,5.35
2023-02-16T06:52:14.665Z,5.36
2023-02-16T06:56:17.551Z,5.39
2023-02-16T07:00:21.003Z,5.39
2023-02-16T07:04:24.000Z,5.46
2023-02-16T07:08:28.266Z,5.46
2023-02-16T07:12:31.198Z,5.48
2023-02-16T07:16:34.115Z,5.50
2023-02-16T07:20:37.818Z,5.57
2023-02-16T07:24:42.069Z,5.65
2023-02-16T07:28:44.965Z,5.68
2023-02-16T07:32:47.969Z,5.72
2023-02-16T07:36:50.867Z,5.79
2023-02-16T07:40:54.969Z,5.83
2023-02-16T07:44:57.796Z,5.89
2023-02-16T07:49:00.749Z,5.90
2023-02-16T07:53:03.820Z,5.96
2023-02-16T07:57:08.026Z,6.01
2023-02-16T08:01:15.434Z,6.06
2023-02-16T08:05:18.780Z,6.12
2023-02-16T08:09:21.613Z,6.15
2023-02-16T08:13:25.848Z,6.15
2023-02-16T08:17:28.742Z,6.19
2023-02-16T08:21:33.359Z,6.19
2023-02-16T08:25:36.608Z,6.27
2023-02-16T08:29:41.544Z,6.31
2023-02-16T08:33:45.020Z,6.33
2023-02-16T08:37:47.955Z,6.35
2023-02-16T08:41:51.531Z,6.43
2023-02-16T08:45:55.900Z,6.55
2023-02-16T08:49:58.835Z,6.62
2023-02-16T08:54:04.881Z,6.72
2023-02-16T08:58:08.617Z,6.78
2023-02-16T09:02:12.844Z,6.82
2023-02-16T09:06:17.709Z,6.88
2023-02-16T09:10:22.189Z,6.94
2023-02-16T09:14:25.089Z,7.00
2023-02-16T09:18:29.393Z,7.10
2023-02-16T09:22:32.916Z,7.17
2023-02-16T09:26:38.510Z,7.21
2023-02-16T09:30:41.327Z,7.30
2023-02-16T09:34:46.262Z,7.39
2023-02-16T09:38:49.186Z,7.47
2023-02-16T09:43:04.506Z,7.54
2023-02-16T09:47:25.422Z,7.57
2023-02-16T09:51:36.128Z,7.60
2023-02-16T09:55:46.404Z,7.66
2023-02-16T09:59:57.659Z,7.68
2023-02-16T10:04:12.970Z,7.65
2023-02-16T10:08:22.715Z,7.73
2023-02-16T10:12:30.186Z,7.74
2023-02-16T10:16:38.900Z,7.76
2023-02-16T10:20:44.323Z,7.75
2023-02-16T10:25:00.574Z,7.79
2023-02-16T10:29:07.906Z,7.81
2023-02-16T10:33:16.494Z,7.84
2023-02-16T10:37:38.997Z,7.86
2023-02-16T10:41:46.701Z,7.91
2023-02-16T10:45:53.060Z,7.96
2023-02-16T10:49:56.884Z,8.03
2023-02-16T10:54:03.020Z,8.12
2023-02-16T10:58:18.023Z,8.19
2023-02-16T11:02:25.068Z,8.26
2023-02-16T11:06:29.088Z,8.31
2023-02-16T11:10:42.495Z,8.28
2023-02-16T11:14:52.485Z,8.27
2023-02-16T11:19:00.298Z,8.42
2023-02-16T11:23:21.972Z,8.47
2023-02-16T11:27:25.935Z,8.48
2023-02-16T11:31:34.508Z,8.52
2023-02-16T11:35:44.244Z,8.59
2023-02-16T11:39:53.680Z,8.65
2023-02-16T11:43:57.606Z,8.62
2023-02-16T11:48:05.765Z,8.62
2023-02-16T11:52:27.345Z,8.60
2023-02-16T11:56:31.391Z,8.63
2023-02-16T12:00:34.593Z,8.65
2023-02-16T12:04:59.138Z,8.53
2023-02-16T12:09:20.630Z,8.47
2023-02-16T12:13:30.065Z,8.42
2023-02-16T12:17:50.626Z,8.35
2023-02-16T12:22:05.797Z,8.30
2023-02-16T12:26:31.690Z,8.27
2023-02-16T12:30:47.092Z,8.19
2023-02-16T12:35:04.077Z,8.10
2023-02-16T12:39:18.319Z,8.04
2023-02-16T12:43:35.832Z,8.05
2023-02-16T12:47:44.897Z,8.01
2023-02-16T12:51:51.631Z,8.01
2023-02-16T12:56:00.631Z,7.99
2023-02-16T13:00:17.703Z,8.02
2023-02-16T13:04:28.701Z,8.05
2023-02-16T13:08:39.120Z,8.08
2023-02-16T13:12:50.171Z,8.06
2023-02-16T13:16:57.438Z,8.16
2023-02-16T13:21:05.442Z,8.29
2023-02-16T13:25:43.357Z,8.42
2023-02-16T13:30:00.464Z,8.56
2023-02-16T13:34:22.212Z,8.67
2023-02-16T13:38:51.459Z,8.84
2023-02-16T13:43:14.392Z,8.95
2023-02-16T13:47:25.489Z,9.02
2023-02-16T13:51:30.988Z,9.11
2023-02-16T13:55:37.466Z,9.20
2023-02-16T14:00:02.003Z,9.38
2023-02-16T14:04:07.872Z,9.37
2023-02-16T14:08:27.540Z,9.41
2023-02-16T14:12:34.304Z,9.46
2023-02-16T14:16:37.133Z,9.57
2023-02-16T14:20:41.318Z,9.67
2023-02-16T14:24:44.721Z,9.68
2023-02-16T14:29:03.658Z,9.64
2023-02-16T14:33:20.295Z,9.63
2023-02-16T14:37:36.729Z,9.59
2023-02-16T14:41:41.561Z,9.71
2023-02-16T14:46:08.106Z,9.73
2023-02-16T14:50:28.791Z,9.72
2023-02-16T14:55:02.452Z,9.65
2023-02-16T14:59:12.924Z,9.67
2023-02-16T15:03:18.894Z,9.72
2023-02-16T15:07:23.127Z,9.65
2023-02-16T15:11:33.840Z,9.55
2023-02-16T15:15:45.667Z,9.52
2023-02-16T15:19:48.923Z,9.55
2023-02-16T15:23:53.759Z,9.61
2023-02-16T15:28:00.862Z,9.64
2023-02-16T15:32:08.781Z,9.62
2023-02-16T15:36:14.241Z,9.61
2023-02-16T15:40:26.531Z,9.64
2023-02-16T15:44:34.308Z,9.60
2023-02-16T15:48:38.635Z,9.58
2023-02-16T15:52:42.766Z,9.64
2023-02-16T15:56:48.246Z,9.69
2023-02-16T16:00:54.238Z,9.68
2023-02-16T16:05:01.588Z,9.66
2023-02-16T16:09:08.515Z,9.67
2023-02-16T16:13:19.916Z,9.66
2023-02-16T16:17:27.988Z,9.69
2023-02-16T16:21:35.895Z,9.69
2023-02-16T16:25:43.248Z,9.67
2023-02-16T16:29:48.667Z,9.67
2023-02-16T16:33:58.597Z,9.65
2023-02-16T16:38:01.943Z,9.63
2023-02-16T16:42:29.124Z,9.62
2023-02-16T16:46:32.999Z,9.62
2023-02-16T16:50:39.769Z,9.62
2023-02-16T16:54:42.796Z,9.61
2023-02-16T16:58:50.663Z,9.60
2023-02-16T17:02:53.726Z,9.59
2023-02-16T17:06:58.444Z,9.61
2023-02-16T17:11:01.955Z,9.61
2023-02-16T17:15:07.206Z,9.63
2023-02-16T17:19:12.953Z,9.61
2023-02-16T17:23:19.224Z,9.60
2023-02-16T17:27:23.057Z,9.61
2023-02-16T17:31:26.597Z,9.60
2023-02-16T17:35:31.107Z,9.64
2023-02-16T17:39:36.108Z,9.61
2023-02-16T17:43:38.953Z,9.62
2023-02-16T17:47:43.551Z,9.65
2023-02-16T17:51:46.463Z,9.66
2023-02-16T17:55:52.481Z,9.68
2023-02-16T17:59:55.421Z,9.67
2023-02-16T18:03:59.477Z,9.67
2023-02-16T18:08:02.467Z,9.66
2023-02-16T18:12:07.286Z,9.64
2023-02-16T18:16:14.680Z,9.64
2023-02-16T18:20:17.888Z,9.65
2023-02-16T18:24:20.789Z,9.67
2023-02-16T18:28:30.710Z,9.67
2023-02-16T18:32:33.698Z,9.68
2023-02-16T18:36:36.979Z,9.67
2023-02-16T18:40:42.718Z,9.69
2023-02-16T18:44:48.240Z,9.71
2023-02-16T18:48:51.311Z,9.73
2023-02-16T18:52:54.177Z,9.76
2023-02-16T18:56:57.122Z,9.78
2023-02-16T19:01:01.371Z,9.76
2023-02-16T19:05:04.310Z,9.78
2023-02-16T19:09:07.241Z,9.79
2023-02-16T19:13:10.078Z,9.79
2023-02-16T19:17:14.205Z,9.78
2023-02-16T19:21:17.020Z,9.79
2023-02-16T19:25:21.169Z,9.81
2023-02-16T19:29:24.378Z,9.83
2023-02-16T19:33:28.592Z,9.77
2023-02-16T19:37:31.752Z,9.80
2023-02-16T19:41:37.761Z,9.85
2023-02-16T19:45:41.299Z,9.84
2023-02-16T19:49:45.620Z,9.84
2023-02-16T19:53:49.085Z,9.83
2023-02-16T19:57:51.917Z,9.84
2023-02-16T20:01:55.074Z,9.78
2023-02-16T20:05:59.359Z,9.78
2023-02-16T20:10:02.177Z,9.82
2023-02-16T20:14:05.040Z,9.79
2023-02-16T20:18:08.489Z,9.76
2023-02-16T20:22:12.798Z,9.76
2023-02-16T20:26:18.896Z,9.74
2023-02-16T20:30:25.150Z,9.73
2023-02-16T20:34:28.513Z,9.76
2023-02-16T20:38:32.700Z,9.73
2023-02-16T20:42:35.656Z,9.77
2023-02-16T20:46:39.719Z,9.76
2023-02-16T20:50:43.069Z,9.78
2023-02-16T20:54:47.306Z,9.76
2023-02-16T20:58:51.506Z,9.80
2023-02-16T21:02:54.868Z,9.79
2023-02-16T21:06:57.689Z,9.82
2023-02-16T21:11:01.898Z,9.83
2023-02-16T21:15:05.409Z,9.80
2023-02-16T21:19:17.538Z,9.83
2023-02-16T21:23:25.268Z,9.82
2023-02-16T21:27:29.555Z,9.81
2023-02-16T21:31:34.403Z,9.80
2023-02-16T21:35:37.298Z,9.80
2023-02-16T21:39:57.782Z,9.80
2023-02-16T21:44:05.748Z,9.78
2023-02-16T21:48:26.297Z,9.79
2023-02-16T21:52:29.153Z,9.78
2023-02-16T21:56:36.387Z,9.79
2023-02-16T22:00:40.783Z,9.75
2023-02-16T22:04:43.806Z,9.77
2023-02-16T22:08:46.602Z,9.78
2023-02-16T22:12:49.397Z,9.78
2023-02-16T22:16:53.707Z,9.79
2023-02-16T22:20:56.551Z,9.82
2023-02-16T22:24:59.460Z,9.75
2023-02-16T22:29:03.976Z,9.76
2023-02-16T22:33:08.190Z,9.76
2023-02-16T22:37:11.004Z,9.77
2023-02-16T22:41:13.905Z,9.82
2023-02-16T22:45:16.891Z,9.81
2023-02-16T22:49:21.364Z,9.83
2023-02-16T22:53:26.709Z,9.83
2023-02-16T22:57:29.757Z,9.86
2023-02-16T23:01:32.837Z,9.88
2023-02-16T23:05:37.100Z,9.89
2023-02-16T23:09:40.012Z,9.88
2023-02-16T23:13:42.854Z,9.85
2023-02-16T23:17:46.729Z,9.88
2023-02-16T23:21:51.854Z,9.89
2023-02-16T23:25:55.436Z,9.91
2023-02-16T23:29:58.299Z,9.93
2023-02-16T23:34:02.556Z,9.93
2023-02-16T23:38:07.393Z,9.92
2023-02-16T23:42:10.197Z,9.95
2023-02-16T23:46:13.962Z,9.96
2023-02-16T23:50:17.052Z,10.00
2023-02-16T23:54:21.225Z,10.04
2023-02-16T23:58:25.958Z,10.04
